sensor_id;sensor_type;location;lat;lon;timestamp;P1;durP1;ratioP1;P2;durP2;ratioP2
77864;SDS011;67061;48.524;9.040;2023-05-07T00:00:48;4.53;;;2.50;;
77864;SDS011;67061;48.524;9.040;2023-05-07T00:03:16;3.60;;;2.60;;
77864;SDS011;67061;48.524;9.040;2023-05-07T00:05:44;3.35;;;2.33;;
77864;SDS011;67061;48.524;9.040;2023-05-07T00:08:12;4.45;;;3.00;;
77864;SDS011;67061;48.524;9.040;2023-05-07T00:10:40;4.80;;;3.67;;
77864;SDS011;67061;48.524;9.040;2023-05-07T00:13:07;3.88;;;2.53;;
77864;SDS011;67061;48.524;9.040;2023-05-07T00:15:34;5.00;;;2.70;;
77864;SDS011;67061;48.524;9.040;2023-05-07T00:18:01;5.65;;;4.07;;
77864;SDS011;67061;48.524;9.040;2023-05-07T00:20:28;5.88;;;3.70;;
77864;SDS011;67061;48.524;9.040;2023-05-07T00:22:55;4.95;;;2.78;;
77864;SDS011;67061;48.524;9.040;2023-05-07T00:25:23;5.13;;;2.78;;
77864;SDS011;67061;48.524;9.040;2023-05-07T00:27:50;6.65;;;2.72;;
77864;SDS011;67061;48.524;9.040;2023-05-07T00:30:17;4.95;;;3.28;;
77864;SDS011;67061;48.524;9.040;2023-05-07T00:32:44;5.07;;;2.65;;
77864;SDS011;67061;48.524;9.040;2023-05-07T00:35:11;4.85;;;2.95;;
77864;SDS011;67061;48.524;9.040;2023-05-07T00:37:37;4.10;;;2.67;;
77864;SDS011;67061;48.524;9.040;2023-05-07T00:40:05;5.50;;;2.63;;
77864;SDS011;67061;48.524;9.040;2023-05-07T00:42:34;7.13;;;2.63;;
77864;SDS011;67061;48.524;9.040;2023-05-07T00:45:01;5.70;;;2.78;;
77864;SDS011;67061;48.524;9.040;2023-05-07T00:47:29;5.38;;;3.10;;
77864;SDS011;67061;48.524;9.040;2023-05-07T00:49:56;3.67;;;2.72;;
77864;SDS011;67061;48.524;9.040;2023-05-07T00:52:23;4.63;;;2.70;;
77864;SDS011;67061;48.524;9.040;2023-05-07T00:54:52;4.07;;;2.95;;
77864;SDS011;67061;48.524;9.040;2023-05-07T00:57:20;4.32;;;3.20;;
77864;SDS011;67061;48.524;9.040;2023-05-07T00:59:49;5.40;;;3.42;;
77864;SDS011;67061;48.524;9.040;2023-05-07T01:02:17;4.80;;;3.20;;
77864;SDS011;67061;48.524;9.040;2023-05-07T01:04:44;5.50;;;4.22;;
77864;SDS011;67061;48.524;9.040;2023-05-07T01:07:11;4.88;;;2.80;;
77864;SDS011;67061;48.524;9.040;2023-05-07T01:09:39;4.78;;;2.92;;
77864;SDS011;67061;48.524;9.040;2023-05-07T01:12:06;4.60;;;2.72;;
77864;SDS011;67061;48.524;9.040;2023-05-07T01:14:34;4.88;;;2.90;;
77864;SDS011;67061;48.524;9.040;2023-05-07T01:17:02;5.38;;;2.58;;
77864;SDS011;67061;48.524;9.040;2023-05-07T01:19:29;4.18;;;2.72;;
77864;SDS011;67061;48.524;9.040;2023-05-07T01:21:59;4.57;;;2.85;;
77864;SDS011;67061;48.524;9.040;2023-05-07T01:24:30;4.63;;;2.50;;
77864;SDS011;67061;48.524;9.040;2023-05-07T01:26:57;7.78;;;3.28;;
77864;SDS011;67061;48.524;9.040;2023-05-07T01:29:26;4.60;;;3.40;;
77864;SDS011;67061;48.524;9.040;2023-05-07T01:31:53;4.30;;;2.75;;
77864;SDS011;67061;48.524;9.040;2023-05-07T01:36:50;6.07;;;3.03;;
77864;SDS011;67061;48.524;9.040;2023-05-07T01:39:20;4.05;;;3.13;;
77864;SDS011;67061;48.524;9.040;2023-05-07T01:41:49;5.18;;;3.83;;
77864;SDS011;67061;48.524;9.040;2023-05-07T01:44:16;5.30;;;2.85;;
77864;SDS011;67061;48.524;9.040;2023-05-07T01:46:45;4.18;;;2.95;;
77864;SDS011;67061;48.524;9.040;2023-05-07T01:49:13;6.65;;;3.63;;
77864;SDS011;67061;48.524;9.040;2023-05-07T01:51:41;5.38;;;3.38;;
77864;SDS011;67061;48.524;9.040;2023-05-07T01:54:08;4.60;;;3.00;;
77864;SDS011;67061;48.524;9.040;2023-05-07T01:56:35;5.68;;;2.92;;
77864;SDS011;67061;48.524;9.040;2023-05-07T01:59:04;5.30;;;3.40;;
77864;SDS011;67061;48.524;9.040;2023-05-07T02:01:31;5.93;;;3.15;;
77864;SDS011;67061;48.524;9.040;2023-05-07T02:03:58;6.68;;;3.20;;
77864;SDS011;67061;48.524;9.040;2023-05-07T02:06:24;6.57;;;3.17;;
77864;SDS011;67061;48.524;9.040;2023-05-07T02:08:51;4.70;;;3.28;;
77864;SDS011;67061;48.524;9.040;2023-05-07T02:11:18;5.75;;;4.03;;
77864;SDS011;67061;48.524;9.040;2023-05-07T02:13:45;4.50;;;3.17;;
77864;SDS011;67061;48.524;9.040;2023-05-07T02:16:14;7.43;;;3.28;;
77864;SDS011;67061;48.524;9.040;2023-05-07T02:18:40;6.95;;;3.55;;
77864;SDS011;67061;48.524;9.040;2023-05-07T02:21:07;5.32;;;3.63;;
77864;SDS011;67061;48.524;9.040;2023-05-07T02:23:34;5.47;;;3.58;;
77864;SDS011;67061;48.524;9.040;2023-05-07T02:26:01;5.07;;;3.17;;
77864;SDS011;67061;48.524;9.040;2023-05-07T02:28:28;6.40;;;3.85;;
77864;SDS011;67061;48.524;9.040;2023-05-07T02:30:55;4.93;;;3.60;;
77864;SDS011;67061;48.524;9.040;2023-05-07T02:33:24;4.40;;;3.05;;
77864;SDS011;67061;48.524;9.040;2023-05-07T02:35:51;5.47;;;3.10;;
77864;SDS011;67061;48.524;9.040;2023-05-07T02:38:18;4.35;;;3.25;;
77864;SDS011;67061;48.524;9.040;2023-05-07T02:40:45;5.88;;;3.33;;
77864;SDS011;67061;48.524;9.040;2023-05-07T02:43:12;4.78;;;3.25;;
77864;SDS011;67061;48.524;9.040;2023-05-07T02:45:39;5.20;;;3.58;;
77864;SDS011;67061;48.524;9.040;2023-05-07T02:48:06;5.93;;;3.35;;
77864;SDS011;67061;48.524;9.040;2023-05-07T02:50:34;4.95;;;4.28;;
77864;SDS011;67061;48.524;9.040;2023-05-07T02:53:01;8.05;;;3.78;;
77864;SDS011;67061;48.524;9.040;2023-05-07T02:55:28;6.20;;;3.38;;
77864;SDS011;67061;48.524;9.040;2023-05-07T02:57:55;5.53;;;4.90;;
77864;SDS011;67061;48.524;9.040;2023-05-07T03:00:22;4.07;;;3.30;;
77864;SDS011;67061;48.524;9.040;2023-05-07T03:02:49;6.38;;;3.30;;
77864;SDS011;67061;48.524;9.040;2023-05-07T03:05:16;5.53;;;3.83;;
77864;SDS011;67061;48.524;9.040;2023-05-07T03:07:44;7.80;;;4.60;;
77864;SDS011;67061;48.524;9.040;2023-05-07T03:10:12;5.63;;;3.63;;
77864;SDS011;67061;48.524;9.040;2023-05-07T03:12:39;6.88;;;5.15;;
77864;SDS011;67061;48.524;9.040;2023-05-07T03:15:07;8.73;;;3.78;;
77864;SDS011;67061;48.524;9.040;2023-05-07T03:17:35;5.18;;;4.10;;
77864;SDS011;67061;48.524;9.040;2023-05-07T03:20:02;5.10;;;3.65;;
77864;SDS011;67061;48.524;9.040;2023-05-07T03:22:30;5.45;;;3.90;;
77864;SDS011;67061;48.524;9.040;2023-05-07T03:24:58;4.82;;;3.63;;
77864;SDS011;67061;48.524;9.040;2023-05-07T03:27:25;4.95;;;4.43;;
77864;SDS011;67061;48.524;9.040;2023-05-07T03:29:52;5.82;;;3.65;;
77864;SDS011;67061;48.524;9.040;2023-05-07T03:32:19;8.43;;;3.55;;
77864;SDS011;67061;48.524;9.040;2023-05-07T03:34:45;5.07;;;3.67;;
77864;SDS011;67061;48.524;9.040;2023-05-07T03:37:12;5.57;;;3.78;;
77864;SDS011;67061;48.524;9.040;2023-05-07T03:39:39;6.03;;;4.40;;
77864;SDS011;67061;48.524;9.040;2023-05-07T03:42:07;8.13;;;4.78;;
77864;SDS011;67061;48.524;9.040;2023-05-07T03:44:34;6.82;;;4.20;;
77864;SDS011;67061;48.524;9.040;2023-05-07T03:47:02;5.80;;;4.25;;
77864;SDS011;67061;48.524;9.040;2023-05-07T03:49:29;7.45;;;4.82;;
77864;SDS011;67061;48.524;9.040;2023-05-07T03:51:56;8.20;;;5.05;;
77864;SDS011;67061;48.524;9.040;2023-05-07T03:54:22;7.88;;;5.07;;
77864;SDS011;67061;48.524;9.040;2023-05-07T03:56:49;8.35;;;4.18;;
77864;SDS011;67061;48.524;9.040;2023-05-07T03:59:18;6.13;;;4.38;;
77864;SDS011;67061;48.524;9.040;2023-05-07T04:01:44;8.70;;;3.88;;
77864;SDS011;67061;48.524;9.040;2023-05-07T04:04:11;6.22;;;3.55;;
77864;SDS011;67061;48.524;9.040;2023-05-07T04:06:39;6.20;;;3.90;;
77864;SDS011;67061;48.524;9.040;2023-05-07T04:09:06;6.25;;;3.92;;
77864;SDS011;67061;48.524;9.040;2023-05-07T04:11:33;7.15;;;5.10;;
77864;SDS011;67061;48.524;9.040;2023-05-07T04:14:01;5.13;;;3.78;;
77864;SDS011;67061;48.524;9.040;2023-05-07T04:16:29;4.70;;;3.65;;
77864;SDS011;67061;48.524;9.040;2023-05-07T04:18:56;6.05;;;3.63;;
77864;SDS011;67061;48.524;9.040;2023-05-07T04:21:23;5.47;;;3.53;;
77864;SDS011;67061;48.524;9.040;2023-05-07T04:23:51;8.07;;;3.75;;
77864;SDS011;67061;48.524;9.040;2023-05-07T04:26:18;6.78;;;4.18;;
77864;SDS011;67061;48.524;9.040;2023-05-07T04:28:46;6.10;;;4.13;;
77864;SDS011;67061;48.524;9.040;2023-05-07T04:31:13;5.78;;;3.90;;
77864;SDS011;67061;48.524;9.040;2023-05-07T04:33:41;5.82;;;3.60;;
77864;SDS011;67061;48.524;9.040;2023-05-07T04:36:08;6.53;;;5.38;;
77864;SDS011;67061;48.524;9.040;2023-05-07T04:38:35;5.65;;;3.85;;
77864;SDS011;67061;48.524;9.040;2023-05-07T04:41:04;5.20;;;3.72;;
77864;SDS011;67061;48.524;9.040;2023-05-07T04:43:31;8.48;;;3.58;;
77864;SDS011;67061;48.524;9.040;2023-05-07T04:45:58;5.97;;;3.78;;
77864;SDS011;67061;48.524;9.040;2023-05-07T04:48:25;6.03;;;3.65;;
77864;SDS011;67061;48.524;9.040;2023-05-07T04:50:55;6.95;;;3.40;;
77864;SDS011;67061;48.524;9.040;2023-05-07T04:53:22;5.43;;;4.82;;
77864;SDS011;67061;48.524;9.040;2023-05-07T04:55:54;5.90;;;3.35;;
77864;SDS011;67061;48.524;9.040;2023-05-07T04:58:21;5.10;;;4.50;;
77864;SDS011;67061;48.524;9.040;2023-05-07T05:00:48;5.18;;;3.80;;
77864;SDS011;67061;48.524;9.040;2023-05-07T05:03:15;6.15;;;3.75;;
77864;SDS011;67061;48.524;9.040;2023-05-07T05:05:43;5.45;;;3.63;;
77864;SDS011;67061;48.524;9.040;2023-05-07T05:08:11;5.57;;;3.72;;
77864;SDS011;67061;48.524;9.040;2023-05-07T05:10:38;4.65;;;3.53;;
77864;SDS011;67061;48.524;9.040;2023-05-07T05:13:06;6.38;;;3.53;;
77864;SDS011;67061;48.524;9.040;2023-05-07T05:15:33;5.18;;;3.80;;
77864;SDS011;67061;48.524;9.040;2023-05-07T05:18:00;4.68;;;3.47;;
77864;SDS011;67061;48.524;9.040;2023-05-07T05:20:27;7.78;;;3.63;;
77864;SDS011;67061;48.524;9.040;2023-05-07T05:22:54;4.63;;;3.83;;
77864;SDS011;67061;48.524;9.040;2023-05-07T05:25:23;5.53;;;3.25;;
77864;SDS011;67061;48.524;9.040;2023-05-07T05:27:49;4.72;;;3.53;;
77864;SDS011;67061;48.524;9.040;2023-05-07T05:30:16;6.15;;;3.50;;
77864;SDS011;67061;48.524;9.040;2023-05-07T05:32:43;7.47;;;3.90;;
77864;SDS011;67061;48.524;9.040;2023-05-07T05:35:10;4.28;;;3.60;;
77864;SDS011;67061;48.524;9.040;2023-05-07T05:37:37;4.22;;;3.30;;
77864;SDS011;67061;48.524;9.040;2023-05-07T05:40:04;4.63;;;3.40;;
77864;SDS011;67061;48.524;9.040;2023-05-07T05:42:33;5.53;;;3.50;;
77864;SDS011;67061;48.524;9.040;2023-05-07T05:45:00;6.65;;;3.50;;
77864;SDS011;67061;48.524;9.040;2023-05-07T05:47:27;6.63;;;4.00;;
77864;SDS011;67061;48.524;9.040;2023-05-07T05:49:54;4.85;;;3.60;;
77864;SDS011;67061;48.524;9.040;2023-05-07T05:52:21;6.68;;;3.80;;
77864;SDS011;67061;48.524;9.040;2023-05-07T05:54:48;5.65;;;3.38;;
77864;SDS011;67061;48.524;9.040;2023-05-07T05:57:15;5.75;;;3.65;;
77864;SDS011;67061;48.524;9.040;2023-05-07T05:59:44;6.22;;;4.95;;
77864;SDS011;67061;48.524;9.040;2023-05-07T06:02:12;7.88;;;3.78;;
77864;SDS011;67061;48.524;9.040;2023-05-07T06:04:39;6.55;;;3.42;;
77864;SDS011;67061;48.524;9.040;2023-05-07T06:07:07;6.40;;;3.88;;
77864;SDS011;67061;48.524;9.040;2023-05-07T06:09:34;5.43;;;3.95;;
77864;SDS011;67061;48.524;9.040;2023-05-07T06:12:01;5.90;;;4.30;;
77864;SDS011;67061;48.524;9.040;2023-05-07T06:14:28;5.43;;;4.82;;
77864;SDS011;67061;48.524;9.040;2023-05-07T06:16:56;7.38;;;4.00;;
77864;SDS011;67061;48.524;9.040;2023-05-07T06:19:23;6.15;;;4.05;;
77864;SDS011;67061;48.524;9.040;2023-05-07T06:21:51;6.63;;;5.93;;
77864;SDS011;67061;48.524;9.040;2023-05-07T06:24:18;5.30;;;3.97;;
77864;SDS011;67061;48.524;9.040;2023-05-07T06:26:45;4.35;;;3.45;;
77864;SDS011;67061;48.524;9.040;2023-05-07T06:29:12;5.07;;;3.90;;
77864;SDS011;67061;48.524;9.040;2023-05-07T06:31:39;6.07;;;3.53;;
77864;SDS011;67061;48.524;9.040;2023-05-07T06:34:08;5.22;;;3.80;;
77864;SDS011;67061;48.524;9.040;2023-05-07T06:36:35;5.60;;;3.80;;
77864;SDS011;67061;48.524;9.040;2023-05-07T06:39:02;5.70;;;4.82;;
77864;SDS011;67061;48.524;9.040;2023-05-07T06:41:28;5.70;;;3.85;;
77864;SDS011;67061;48.524;9.040;2023-05-07T06:43:55;5.22;;;3.65;;
77864;SDS011;67061;48.524;9.040;2023-05-07T06:46:22;6.40;;;4.13;;
77864;SDS011;67061;48.524;9.040;2023-05-07T06:48:49;4.53;;;3.63;;
77864;SDS011;67061;48.524;9.040;2023-05-07T06:51:18;5.55;;;4.35;;
77864;SDS011;67061;48.524;9.040;2023-05-07T06:53:45;6.03;;;4.03;;
77864;SDS011;67061;48.524;9.040;2023-05-07T06:56:12;5.10;;;3.72;;
77864;SDS011;67061;48.524;9.040;2023-05-07T06:58:39;6.07;;;3.75;;
77864;SDS011;67061;48.524;9.040;2023-05-07T07:01:06;7.68;;;4.65;;
77864;SDS011;67061;48.524;9.040;2023-05-07T07:03:33;6.88;;;4.05;;
77864;SDS011;67061;48.524;9.040;2023-05-07T07:06:00;4.90;;;3.60;;
77864;SDS011;67061;48.524;9.040;2023-05-07T07:08:29;7.93;;;3.92;;
77864;SDS011;67061;48.524;9.040;2023-05-07T07:10:55;5.25;;;3.83;;
77864;SDS011;67061;48.524;9.040;2023-05-07T07:13:23;6.13;;;3.47;;
77864;SDS011;67061;48.524;9.040;2023-05-07T07:15:51;6.00;;;4.70;;
77864;SDS011;67061;48.524;9.040;2023-05-07T07:18:18;5.30;;;4.80;;
77864;SDS011;67061;48.524;9.040;2023-05-07T07:20:45;6.35;;;4.10;;
77864;SDS011;67061;48.524;9.040;2023-05-07T07:23:12;5.70;;;4.47;;
77864;SDS011;67061;48.524;9.040;2023-05-07T07:25:40;5.05;;;3.63;;
77864;SDS011;67061;48.524;9.040;2023-05-07T07:28:07;4.72;;;3.25;;
77864;SDS011;67061;48.524;9.040;2023-05-07T07:30:35;6.75;;;5.07;;
77864;SDS011;67061;48.524;9.040;2023-05-07T07:33:02;5.05;;;4.55;;
77864;SDS011;67061;48.524;9.040;2023-05-07T07:35:30;5.82;;;5.15;;
77864;SDS011;67061;48.524;9.040;2023-05-07T07:37:57;6.55;;;4.85;;
77864;SDS011;67061;48.524;9.040;2023-05-07T07:40:24;6.10;;;4.43;;
77864;SDS011;67061;48.524;9.040;2023-05-07T07:42:52;5.88;;;5.28;;
77864;SDS011;67061;48.524;9.040;2023-05-07T07:45:19;6.57;;;3.53;;
77864;SDS011;67061;48.524;9.040;2023-05-07T07:47:46;3.92;;;3.10;;
77864;SDS011;67061;48.524;9.040;2023-05-07T07:50:13;7.80;;;3.60;;
77864;SDS011;67061;48.524;9.040;2023-05-07T07:52:40;7.00;;;4.53;;
77864;SDS011;67061;48.524;9.040;2023-05-07T07:55:07;5.70;;;3.45;;
77864;SDS011;67061;48.524;9.040;2023-05-07T07:57:35;4.35;;;2.85;;
77864;SDS011;67061;48.524;9.040;2023-05-07T08:00:03;5.93;;;3.28;;
77864;SDS011;67061;48.524;9.040;2023-05-07T08:02:32;4.35;;;3.45;;
77864;SDS011;67061;48.524;9.040;2023-05-07T08:04:59;5.85;;;3.67;;
77864;SDS011;67061;48.524;9.040;2023-05-07T08:07:26;6.03;;;5.43;;
77864;SDS011;67061;48.524;9.040;2023-05-07T08:09:52;5.43;;;4.93;;
77864;SDS011;67061;48.524;9.040;2023-05-07T08:12:19;7.43;;;4.90;;
77864;SDS011;67061;48.524;9.040;2023-05-07T08:14:46;5.38;;;4.03;;
77864;SDS011;67061;48.524;9.040;2023-05-07T08:17:15;5.45;;;3.90;;
77864;SDS011;67061;48.524;9.040;2023-05-07T08:19:41;5.80;;;4.55;;
77864;SDS011;67061;48.524;9.040;2023-05-07T08:22:08;4.65;;;3.50;;
77864;SDS011;67061;48.524;9.040;2023-05-07T08:24:35;5.38;;;4.43;;
77864;SDS011;67061;48.524;9.040;2023-05-07T08:27:03;4.72;;;3.60;;
77864;SDS011;67061;48.524;9.040;2023-05-07T08:29:30;3.92;;;3.22;;
77864;SDS011;67061;48.524;9.040;2023-05-07T08:31:56;5.80;;;4.57;;
77864;SDS011;67061;48.524;9.040;2023-05-07T08:34:25;5.35;;;4.85;;
77864;SDS011;67061;48.524;9.040;2023-05-07T08:36:51;6.10;;;4.93;;
77864;SDS011;67061;48.524;9.040;2023-05-07T08:39:18;5.03;;;4.40;;
77864;SDS011;67061;48.524;9.040;2023-05-07T08:41:45;5.25;;;4.65;;
77864;SDS011;67061;48.524;9.040;2023-05-07T08:44:13;5.07;;;4.47;;
77864;SDS011;67061;48.524;9.040;2023-05-07T08:46:41;6.25;;;4.95;;
77864;SDS011;67061;48.524;9.040;2023-05-07T08:49:08;6.50;;;4.57;;
77864;SDS011;67061;48.524;9.040;2023-05-07T08:51:36;4.10;;;3.33;;
77864;SDS011;67061;48.524;9.040;2023-05-07T08:54:04;6.05;;;4.57;;
77864;SDS011;67061;48.524;9.040;2023-05-07T08:56:31;5.82;;;3.38;;
77864;SDS011;67061;48.524;9.040;2023-05-07T08:58:58;5.60;;;4.25;;
77864;SDS011;67061;48.524;9.040;2023-05-07T09:01:25;5.28;;;2.97;;
77864;SDS011;67061;48.524;9.040;2023-05-07T09:03:52;4.45;;;3.22;;
77864;SDS011;67061;48.524;9.040;2023-05-07T09:06:19;3.72;;;3.00;;
77864;SDS011;67061;48.524;9.040;2023-05-07T09:08:51;4.13;;;2.97;;
77864;SDS011;67061;48.524;9.040;2023-05-07T09:11:22;5.00;;;4.28;;
77864;SDS011;67061;48.524;9.040;2023-05-07T09:13:52;4.80;;;4.40;;
77864;SDS011;67061;48.524;9.040;2023-05-07T09:16:21;4.65;;;3.33;;
77864;SDS011;67061;48.524;9.040;2023-05-07T09:18:50;4.13;;;2.95;;
77864;SDS011;67061;48.524;9.040;2023-05-07T09:21:18;4.32;;;3.08;;
77864;SDS011;67061;48.524;9.040;2023-05-07T09:23:47;3.67;;;2.78;;
77864;SDS011;67061;48.524;9.040;2023-05-07T09:26:16;3.35;;;2.78;;
77864;SDS011;67061;48.524;9.040;2023-05-07T09:28:43;3.90;;;2.80;;
77864;SDS011;67061;48.524;9.040;2023-05-07T09:31:11;6.10;;;4.25;;
77864;SDS011;67061;48.524;9.040;2023-05-07T09:33:38;4.60;;;4.20;;
77864;SDS011;67061;48.524;9.040;2023-05-07T09:36:06;5.03;;;2.85;;
77864;SDS011;67061;48.524;9.040;2023-05-07T09:38:35;5.82;;;3.08;;
77864;SDS011;67061;48.524;9.040;2023-05-07T09:41:03;4.95;;;3.00;;
77864;SDS011;67061;48.524;9.040;2023-05-07T09:43:33;6.13;;;3.30;;
77864;SDS011;67061;48.524;9.040;2023-05-07T09:46:02;3.72;;;2.88;;
77864;SDS011;67061;48.524;9.040;2023-05-07T09:48:32;4.55;;;3.83;;
77864;SDS011;67061;48.524;9.040;2023-05-07T09:51:03;5.88;;;3.33;;
77864;SDS011;67061;48.524;9.040;2023-05-07T09:53:36;3.53;;;2.80;;
77864;SDS011;67061;48.524;9.040;2023-05-07T09:56:06;4.70;;;3.05;;
77864;SDS011;67061;48.524;9.040;2023-05-07T09:58:34;6.70;;;4.70;;
77864;SDS011;67061;48.524;9.040;2023-05-07T10:01:04;3.15;;;2.30;;
77864;SDS011;67061;48.524;9.040;2023-05-07T10:03:32;4.82;;;4.43;;
77864;SDS011;67061;48.524;9.040;2023-05-07T10:06:01;4.85;;;2.97;;
77864;SDS011;67061;48.524;9.040;2023-05-07T10:08:30;5.65;;;3.10;;
77864;SDS011;67061;48.524;9.040;2023-05-07T10:10:57;6.32;;;4.82;;
77864;SDS011;67061;48.524;9.040;2023-05-07T10:13:25;5.25;;;4.75;;
77864;SDS011;67061;48.524;9.040;2023-05-07T10:15:54;4.43;;;3.42;;
77864;SDS011;67061;48.524;9.040;2023-05-07T10:18:21;4.13;;;2.80;;
77864;SDS011;67061;48.524;9.040;2023-05-07T10:20:54;3.30;;;2.90;;
77864;SDS011;67061;48.524;9.040;2023-05-07T10:23:26;4.38;;;2.78;;
77864;SDS011;67061;48.524;9.040;2023-05-07T10:25:54;3.72;;;2.50;;
77864;SDS011;67061;48.524;9.040;2023-05-07T10:28:22;4.70;;;4.05;;
77864;SDS011;67061;48.524;9.040;2023-05-07T10:30:57;4.50;;;4.10;;
77864;SDS011;67061;48.524;9.040;2023-05-07T10:33:30;4.53;;;4.07;;
77864;SDS011;67061;48.524;9.040;2023-05-07T10:40:53;5.50;;;3.95;;
77864;SDS011;67061;48.524;9.040;2023-05-07T10:43:20;4.30;;;3.75;;
77864;SDS011;67061;48.524;9.040;2023-05-07T10:51:38;3.70;;;2.80;;
77864;SDS011;67061;48.524;9.040;2023-05-07T10:54:18;5.45;;;3.70;;
77864;SDS011;67061;48.524;9.040;2023-05-07T10:56:48;5.20;;;3.58;;
77864;SDS011;67061;48.524;9.040;2023-05-07T10:59:33;3.42;;;3.03;;
77864;SDS011;67061;48.524;9.040;2023-05-07T11:02:08;4.25;;;1.90;;
77864;SDS011;67061;48.524;9.040;2023-05-07T11:04:36;2.95;;;2.30;;
77864;SDS011;67061;48.524;9.040;2023-05-07T11:09:58;4.15;;;3.03;;
77864;SDS011;67061;48.524;9.040;2023-05-07T11:18:17;4.93;;;3.53;;
77864;SDS011;67061;48.524;9.040;2023-05-07T11:26:23;3.47;;;3.17;;
77864;SDS011;67061;48.524;9.040;2023-05-07T11:28:51;3.35;;;2.95;;
77864;SDS011;67061;48.524;9.040;2023-05-07T11:31:22;3.20;;;2.58;;
77864;SDS011;67061;48.524;9.040;2023-05-07T11:33:53;3.17;;;2.72;;
77864;SDS011;67061;48.524;9.040;2023-05-07T11:36:21;4.22;;;2.92;;
77864;SDS011;67061;48.524;9.040;2023-05-07T11:38:49;4.18;;;3.78;;
77864;SDS011;67061;48.524;9.040;2023-05-07T11:41:16;2.63;;;1.85;;
77864;SDS011;67061;48.524;9.040;2023-05-07T11:43:57;2.40;;;1.77;;
77864;SDS011;67061;48.524;9.040;2023-05-07T11:46:26;5.25;;;3.15;;
77864;SDS011;67061;48.524;9.040;2023-05-07T11:51:22;3.80;;;2.92;;
77864;SDS011;67061;48.524;9.040;2023-05-07T11:53:51;3.63;;;3.03;;
77864;SDS011;67061;48.524;9.040;2023-05-07T11:56:18;2.58;;;1.80;;
77864;SDS011;67061;48.524;9.040;2023-05-07T11:58:46;4.10;;;3.75;;
77864;SDS011;67061;48.524;9.040;2023-05-07T12:01:15;3.33;;;2.22;;
77864;SDS011;67061;48.524;9.040;2023-05-07T12:03:44;3.45;;;2.78;;
77864;SDS011;67061;48.524;9.040;2023-05-07T12:06:13;3.47;;;3.13;;
77864;SDS011;67061;48.524;9.040;2023-05-07T12:08:42;4.93;;;3.28;;
77864;SDS011;67061;48.524;9.040;2023-05-07T12:11:11;4.28;;;3.03;;
77864;SDS011;67061;48.524;9.040;2023-05-07T12:13:41;3.83;;;2.95;;
77864;SDS011;67061;48.524;9.040;2023-05-07T12:16:08;4.30;;;2.55;;
77864;SDS011;67061;48.524;9.040;2023-05-07T12:18:35;3.63;;;1.92;;
77864;SDS011;67061;48.524;9.040;2023-05-07T12:21:04;3.60;;;3.30;;
77864;SDS011;67061;48.524;9.040;2023-05-07T12:23:33;5.70;;;3.88;;
77864;SDS011;67061;48.524;9.040;2023-05-07T12:26:01;4.30;;;3.25;;
77864;SDS011;67061;48.524;9.040;2023-05-07T12:28:29;3.42;;;2.75;;
77864;SDS011;67061;48.524;9.040;2023-05-07T12:30:56;5.00;;;2.97;;
77864;SDS011;67061;48.524;9.040;2023-05-07T12:33:24;6.13;;;3.58;;
77864;SDS011;67061;48.524;9.040;2023-05-07T12:35:54;3.38;;;2.63;;
77864;SDS011;67061;48.524;9.040;2023-05-07T12:38:21;4.20;;;3.58;;
77864;SDS011;67061;48.524;9.040;2023-05-07T12:40:50;4.13;;;3.10;;
77864;SDS011;67061;48.524;9.040;2023-05-07T12:43:21;3.97;;;3.58;;
77864;SDS011;67061;48.524;9.040;2023-05-07T12:45:50;5.22;;;3.72;;
77864;SDS011;67061;48.524;9.040;2023-05-07T12:48:20;4.20;;;3.25;;
77864;SDS011;67061;48.524;9.040;2023-05-07T12:50:49;5.07;;;3.53;;
77864;SDS011;67061;48.524;9.040;2023-05-07T12:53:16;4.05;;;3.65;;
77864;SDS011;67061;48.524;9.040;2023-05-07T12:55:46;6.32;;;3.90;;
77864;SDS011;67061;48.524;9.040;2023-05-07T12:58:15;3.95;;;3.35;;
77864;SDS011;67061;48.524;9.040;2023-05-07T13:00:43;3.67;;;2.28;;
77864;SDS011;67061;48.524;9.040;2023-05-07T13:03:11;4.53;;;3.42;;
77864;SDS011;67061;48.524;9.040;2023-05-07T13:05:38;6.95;;;4.00;;
77864;SDS011;67061;48.524;9.040;2023-05-07T13:08:05;7.18;;;3.78;;
77864;SDS011;67061;48.524;9.040;2023-05-07T13:10:34;10.73;;;5.05;;
77864;SDS011;67061;48.524;9.040;2023-05-07T13:13:01;8.38;;;5.30;;
77864;SDS011;67061;48.524;9.040;2023-05-07T13:15:30;7.13;;;4.63;;
77864;SDS011;67061;48.524;9.040;2023-05-07T13:17:57;10.82;;;4.90;;
77864;SDS011;67061;48.524;9.040;2023-05-07T13:20:24;9.30;;;5.22;;
77864;SDS011;67061;48.524;9.040;2023-05-07T13:22:51;6.57;;;4.60;;
77864;SDS011;67061;48.524;9.040;2023-05-07T13:25:17;7.38;;;5.75;;
77864;SDS011;67061;48.524;9.040;2023-05-07T13:27:44;6.70;;;4.40;;
77864;SDS011;67061;48.524;9.040;2023-05-07T13:30:11;9.40;;;6.03;;
77864;SDS011;67061;48.524;9.040;2023-05-07T13:32:40;9.25;;;5.90;;
77864;SDS011;67061;48.524;9.040;2023-05-07T13:35:07;8.52;;;5.47;;
77864;SDS011;67061;48.524;9.040;2023-05-07T13:37:34;9.07;;;6.65;;
77864;SDS011;67061;48.524;9.040;2023-05-07T13:40:01;6.18;;;4.45;;
77864;SDS011;67061;48.524;9.040;2023-05-07T13:42:29;13.65;;;7.88;;
77864;SDS011;67061;48.524;9.040;2023-05-07T13:44:56;13.15;;;6.95;;
77864;SDS011;67061;48.524;9.040;2023-05-07T13:47:23;12.40;;;8.50;;
77864;SDS011;67061;48.524;9.040;2023-05-07T13:49:52;10.93;;;6.65;;
77864;SDS011;67061;48.524;9.040;2023-05-07T13:52:19;9.38;;;6.57;;
77864;SDS011;67061;48.524;9.040;2023-05-07T13:54:46;13.43;;;6.95;;
77864;SDS011;67061;48.524;9.040;2023-05-07T13:57:13;10.27;;;5.68;;
77864;SDS011;67061;48.524;9.040;2023-05-07T13:59:40;11.70;;;5.78;;
77864;SDS011;67061;48.524;9.040;2023-05-07T14:02:07;7.93;;;5.95;;
77864;SDS011;67061;48.524;9.040;2023-05-07T14:04:34;6.60;;;4.05;;
77864;SDS011;67061;48.524;9.040;2023-05-07T14:07:04;9.57;;;6.35;;
77864;SDS011;67061;48.524;9.040;2023-05-07T14:09:31;6.57;;;5.10;;
77864;SDS011;67061;48.524;9.040;2023-05-07T14:11:58;7.65;;;5.10;;
77864;SDS011;67061;48.524;9.040;2023-05-07T14:14:26;9.55;;;4.55;;
77864;SDS011;67061;48.524;9.040;2023-05-07T14:16:53;8.68;;;4.03;;
77864;SDS011;67061;48.524;9.040;2023-05-07T14:19:20;7.10;;;5.25;;
77864;SDS011;67061;48.524;9.040;2023-05-07T14:21:48;7.80;;;4.45;;
77864;SDS011;67061;48.524;9.040;2023-05-07T14:24:16;6.25;;;3.67;;
77864;SDS011;67061;48.524;9.040;2023-05-07T14:26:43;7.22;;;3.97;;
77864;SDS011;67061;48.524;9.040;2023-05-07T14:29:10;6.18;;;3.80;;
77864;SDS011;67061;48.524;9.040;2023-05-07T14:31:37;7.47;;;5.20;;
77864;SDS011;67061;48.524;9.040;2023-05-07T14:34:04;6.97;;;5.57;;
77864;SDS011;67061;48.524;9.040;2023-05-07T14:36:31;6.35;;;3.97;;
77864;SDS011;67061;48.524;9.040;2023-05-07T14:38:58;7.82;;;6.15;;
77864;SDS011;67061;48.524;9.040;2023-05-07T14:41:26;7.53;;;6.00;;
77864;SDS011;67061;48.524;9.040;2023-05-07T14:43:53;8.10;;;4.75;;
77864;SDS011;67061;48.524;9.040;2023-05-07T14:46:21;5.97;;;4.88;;
77864;SDS011;67061;48.524;9.040;2023-05-07T14:48:49;7.88;;;4.70;;
77864;SDS011;67061;48.524;9.040;2023-05-07T14:51:15;7.90;;;6.43;;
77864;SDS011;67061;48.524;9.040;2023-05-07T14:53:42;6.95;;;3.85;;
77864;SDS011;67061;48.524;9.040;2023-05-07T14:56:09;6.53;;;4.90;;
77864;SDS011;67061;48.524;9.040;2023-05-07T14:58:38;6.47;;;3.25;;
77864;SDS011;67061;48.524;9.040;2023-05-07T15:01:05;7.35;;;5.15;;
77864;SDS011;67061;48.524;9.040;2023-05-07T15:03:31;5.57;;;4.05;;
77864;SDS011;67061;48.524;9.040;2023-05-07T15:05:58;8.55;;;4.72;;
77864;SDS011;67061;48.524;9.040;2023-05-07T15:08:25;7.95;;;6.82;;
77864;SDS011;67061;48.524;9.040;2023-05-07T15:10:52;9.70;;;6.90;;
77864;SDS011;67061;48.524;9.040;2023-05-07T15:13:20;7.63;;;6.65;;
77864;SDS011;67061;48.524;9.040;2023-05-07T15:15:48;9.90;;;7.57;;
77864;SDS011;67061;48.524;9.040;2023-05-07T15:18:15;7.80;;;5.22;;
77864;SDS011;67061;48.524;9.040;2023-05-07T15:20:42;7.85;;;6.00;;